createdAt,value
2018-07-10T00:00:45.949Z,62.2
2018-07-10T00:01:45.285Z,62.2
2018-07-10T00:02:44.629Z,62.2
2018-07-10T00:03:43.859Z,62.3
2018-07-10T00:04:43.376Z,62.2
2018-07-10T00:05:42.814Z,62
2018-07-10T00:06:42.044Z,62.1
2018-07-10T00:07:41.370Z,62.2
2018-07-10T00:08:40.595Z,62.2
2018-07-10T00:09:40.223Z,62.3
2018-07-10T00:11:38.845Z,62.1
2018-07-10T00:12:37.968Z,62.1
2018-07-10T00:13:37.597Z,62
2018-07-10T00:14:36.939Z,62.1
2018-07-10T00:15:36.054Z,62.2
2018-07-10T00:16:35.490Z,62.2
2018-07-10T00:17:34.736Z,62.2
2018-07-10T00:18:34.354Z,62.2
2018-07-10T00:19:33.682Z,62.2
2018-07-10T00:20:32.904Z,62.3
2018-07-10T00:22:31.524Z,62.3
2018-07-10T00:23:30.851Z,62.3
2018-07-10T00:24:30.083Z,62.4
2018-07-10T00:25:29.304Z,62.4
2018-07-10T00:26:29.038Z,62.4
2018-07-10T00:27:28.262Z,62.5
2018-07-10T00:27:58.905Z,62.5
2018-07-10T00:28:29.435Z,62.5
2018-07-10T00:29:27.145Z,62.5
2018-07-10T00:30:26.374Z,62.6
2018-07-10T00:31:25.702Z,62.6
2018-07-10T00:32:25.173Z,62.5
2018-07-10T00:33:24.621Z,62.6
2018-07-10T00:34:23.552Z,62.7
2018-07-10T00:35:22.890Z,62.9
2018-07-10T00:36:22.631Z,62.7
2018-07-10T00:37:21.872Z,62.9
2018-07-10T00:38:21.108Z,62.7
2018-07-10T00:39:20.439Z,62.9
2018-07-10T00:40:19.877Z,62.8
2018-07-10T00:41:19.314Z,63.1
2018-07-10T00:42:18.534Z,62.8
2018-07-10T00:43:17.761Z,63
2018-07-10T00:44:16.993Z,63
2018-07-10T00:45:16.625Z,62.9
2018-07-10T00:46:16.067Z,63.1
2018-07-10T00:47:15.290Z,63
2018-07-10T00:48:14.405Z,63.2
2018-07-10T00:49:13.723Z,63
2018-07-10T00:50:13.056Z,63
2018-07-10T00:51:12.280Z,63.7
2018-07-10T00:52:12.118Z,63.8
2018-07-10T00:53:11.446Z,63.2
2018-07-10T00:54:10.380Z,63.1
2018-07-10T00:55:09.825Z,62.9
2018-07-10T00:56:08.952Z,63.1
2018-07-10T00:57:08.392Z,63.1
2018-07-10T00:58:07.715Z,63
2018-07-10T00:59:07.180Z,63.1
2018-07-10T01:00:06.517Z,63.3
2018-07-10T01:01:05.854Z,63.1
2018-07-10T01:02:05.182Z,63.2
2018-07-10T01:03:04.700Z,63.2
2018-07-10T01:04:03.833Z,63.2
2018-07-10T01:04:34.156Z,63.2
2018-07-10T01:05:04.798Z,63.2
2018-07-10T01:05:35.035Z,63.2
2018-07-10T01:06:05.568Z,63.2
2018-07-10T01:07:02.060Z,62.9
2018-07-10T01:08:01.513Z,63
2018-07-10T01:09:00.776Z,63
2018-07-10T01:09:59.903Z,63.2
2018-07-10T01:10:59.240Z,63.4
2018-07-10T01:11:58.682Z,63.6
2018-07-10T01:12:58.013Z,63.1
2018-07-10T01:13:57.344Z,63
2018-07-10T01:14:56.559Z,63.6
2018-07-10T01:15:55.882Z,63.2
2018-07-10T01:16:55.322Z,63.1
2018-07-10T01:17:54.439Z,63.5
2018-07-10T01:18:54.037Z,63.2
2018-07-10T01:19:53.425Z,63.2
2018-07-10T01:20:52.548Z,63.2
2018-07-10T01:21:51.978Z,62.9
2018-07-10T01:23:50.985Z,63.2
2018-07-10T01:24:21.518Z,63.2
2018-07-10T01:25:49.854Z,63.1
2018-07-10T01:26:48.681Z,63.4
2018-07-10T01:27:48.125Z,63.2
2018-07-10T01:28:47.242Z,62.8
2018-07-10T01:29:46.567Z,63
2018-07-10T01:30:45.999Z,63
2018-07-10T01:31:45.217Z,63
2018-07-10T01:32:44.563Z,63
2018-07-10T01:33:44.008Z,63.3
2018-07-10T01:34:43.310Z,63
2018-07-10T01:35:42.750Z,62.9
2018-07-10T01:36:42.082Z,62.9
2018-07-10T01:37:41.302Z,63
2018-07-10T01:39:39.808Z,63
2018-07-10T01:40:39.336Z,62.8
2018-07-10T01:41:38.662Z,63.3
2018-07-10T01:42:38.290Z,63.5
2018-07-10T01:43:37.511Z,63.6
2018-07-10T01:44:36.950Z,63.1
2018-07-10T01:45:36.286Z,63.2
2018-07-10T01:46:35.612Z,62.9
2018-07-10T01:47:34.982Z,62.9
2018-07-10T01:48:34.416Z,62.9
2018-07-10T01:49:33.744Z,62.8
2018-07-10T01:50:32.969Z,63.1
2018-07-10T01:51:32.195Z,62.9
2018-07-10T01:53:30.911Z,62.9
2018-07-10T01:54:30.347Z,63
2018-07-10T01:55:29.571Z,63
2018-07-10T01:56:29.071Z,62.9
2018-07-10T01:57:28.054Z,63
2018-07-10T01:58:27.454Z,63.1
2018-07-10T01:59:26.679Z,63.1
2018-07-10T02:00:26.109Z,63
2018-07-10T02:01:25.346Z,62.9
2018-07-10T02:02:24.680Z,63
2018-07-10T02:03:23.897Z,63
2018-07-10T02:04:23.269Z,62.9
2018-07-10T02:05:22.901Z,63
2018-07-10T02:05:53.661Z,63
2018-07-10T02:06:24.196Z,63.1
2018-07-10T02:06:54.733Z,63.1
2018-07-10T02:08:20.752Z,63
2018-07-10T02:09:20.197Z,63.1
2018-07-10T02:10:19.534Z,63.3
2018-07-10T02:11:18.865Z,63.6
2018-07-10T02:12:18.200Z,63.5
2018-07-10T02:13:17.312Z,63.5
2018-07-10T02:14:16.652Z,63.4
2018-07-10T02:15:16.382Z,63.4
2018-07-10T02:16:15.707Z,63.3
2018-07-10T02:18:14.336Z,63.3
2018-07-10T02:19:13.783Z,63.2
2018-07-10T02:20:12.892Z,63.1
2018-07-10T02:21:12.111Z,63.2
2018-07-10T02:22:11.547Z,63.2
2018-07-10T02:23:10.672Z,63.2
2018-07-10T02:24:10.011Z,63.1
2018-07-10T02:25:09.454Z,63.1
2018-07-10T02:26:08.673Z,63.2
2018-07-10T02:27:08.003Z,63.1
2018-07-10T02:28:07.734Z,63.1
2018-07-10T02:29:07.059Z,62.9
2018-07-10T02:30:05.998Z,63.2
2018-07-10T02:31:05.627Z,63.2
2018-07-10T02:32:04.967Z,63.3
2018-07-10T02:33:04.463Z,63.4
2018-07-10T02:34:03.797Z,63.4
2018-07-10T02:35:03.039Z,63.4
2018-07-10T02:36:02.273Z,63.5
2018-07-10T02:37:01.618Z,63.6
2018-07-10T02:38:01.061Z,63.5
2018-07-10T02:39:00.185Z,63.5
2018-07-10T02:39:59.537Z,63.5
2018-07-10T02:40:58.867Z,63.7
2018-07-10T02:42:57.490Z,63.7
2018-07-10T02:43:28.137Z,63.7
2018-07-10T02:43:58.803Z,63.8
2018-07-10T02:44:55.935Z,63.7
2018-07-10T02:45:55.281Z,63.6
2018-07-10T02:46:54.512Z,63.8
2018-07-10T02:47:54.362Z,63.7
2018-07-10T02:48:53.684Z,63.8
2018-07-10T02:49:53.024Z,63.8
2018-07-10T02:50:52.353Z,63.6
2018-07-10T02:51:51.693Z,63.6
2018-07-10T02:52:50.520Z,63.8
2018-07-10T02:53:50.243Z,63.9
2018-07-10T02:54:49.677Z,64.1
2018-07-10T02:55:49.013Z,64.5
2018-07-10T02:56:48.244Z,64.9
2018-07-10T02:57:47.369Z,65.6
2018-07-10T02:58:46.693Z,66.4
2018-07-10T02:59:46.223Z,67.9
2018-07-10T03:00:45.560Z,67.9
2018-07-10T03:01:44.667Z,69.2
2018-07-10T03:02:43.881Z,70.1
2018-07-10T03:03:43.501Z,73.2
2018-07-10T03:04:42.728Z,74.8
2018-07-10T03:05:42.364Z,74.8
2018-07-10T03:06:41.304Z,76.7
2018-07-10T03:07:40.630Z,77.3
2018-07-10T03:08:39.746Z,77.2
2018-07-10T03:09:39.578Z,79
2018-07-10T03:10:38.699Z,82.1
2018-07-10T03:11:37.823Z,82.7
2018-07-10T03:12:37.567Z,82.5
2018-07-10T03:13:36.891Z,83
2018-07-10T03:14:36.107Z,83.7
2018-07-10T03:15:35.446Z,84.1
2018-07-10T03:16:34.560Z,85.3
2018-07-10T03:17:33.675Z,85.4
2018-07-10T03:18:33.398Z,85.1
2018-07-10T03:19:32.307Z,86.5
2018-07-10T03:20:31.736Z,87.1
2018-07-10T03:21:30.988Z,87.7
2018-07-10T03:22:30.257Z,87.8
2018-07-10T03:23:29.694Z,88.5
2018-07-10T03:24:29.033Z,88.2
2018-07-10T03:24:59.359Z,88.2
2018-07-10T03:25:29.677Z,87.7
2018-07-10T03:26:27.501Z,88.3
2018-07-10T03:26:58.138Z,88.3
2018-07-10T03:27:28.562Z,89.3
2018-07-10T03:28:26.161Z,89.7
2018-07-10T03:29:25.488Z,89.9
2018-07-10T03:30:24.722Z,90.5
2018-07-10T03:31:24.086Z,90.5
2018-07-10T03:32:23.524Z,90.2
2018-07-10T03:33:22.849Z,90.8
2018-07-10T03:34:22.182Z,90.1
2018-07-10T03:35:21.007Z,90.7
2018-07-10T03:36:20.516Z,91.1
2018-07-10T03:36:50.800Z,91.1
2018-07-10T03:37:21.326Z,91.2
2018-07-10T03:38:19.140Z,91.5
2018-07-10T03:39:18.454Z,92
2018-07-10T03:40:17.780Z,92.6
2018-07-10T03:42:16.281Z,92.6
2018-07-10T03:43:15.204Z,92.5
2018-07-10T03:43:45.839Z,92.5
2018-07-10T03:44:16.475Z,93.2
2018-07-10T03:45:13.897Z,93.2
2018-07-10T03:46:13.219Z,93.4
2018-07-10T03:47:12.544Z,94.4
2018-07-10T03:48:11.966Z,93.5
2018-07-10T03:49:10.889Z,94.1
2018-07-10T03:50:10.104Z,94.4
2018-07-10T03:51:09.320Z,94.7
2018-07-10T03:52:09.040Z,94.3
2018-07-10T03:53:08.257Z,94.6
2018-07-10T03:54:07.184Z,94.5
2018-07-10T03:55:06.503Z,94.5
2018-07-10T03:56:05.837Z,94.6
2018-07-10T03:57:05.159Z,94.9
2018-07-10T03:58:04.498Z,95
2018-07-10T03:59:03.718Z,95.2
2018-07-10T04:00:02.946Z,95.3
2018-07-10T04:01:02.169Z,95.3
2018-07-10T04:02:01.396Z,95.3
2018-07-10T04:03:00.726Z,95.6
2018-07-10T04:04:00.053Z,95.3
2018-07-10T04:04:59.303Z,95.1
2018-07-10T04:05:58.742Z,95.4
2018-07-10T04:06:57.966Z,95.5
2018-07-10T04:07:57.077Z,96
2018-07-10T04:08:56.293Z,95.9
2018-07-10T04:09:55.384Z,95.9
2018-07-10T04:10:54.613Z,95.9
2018-07-10T04:11:54.212Z,96.1
2018-07-10T04:12:53.501Z,96
2018-07-10T04:13:52.431Z,96.2
2018-07-10T04:14:51.652Z,95.9
2018-07-10T04:15:50.881Z,95.8
2018-07-10T04:16:50.208Z,95.9
2018-07-10T04:17:49.559Z,96.1
2018-07-10T04:18:48.959Z,95.8
2018-07-10T04:19:48.068Z,95.9
2018-07-10T04:21:46.777Z,96.1
2018-07-10T04:22:45.992Z,96
2018-07-10T04:23:45.319Z,96
2018-07-10T04:24:44.540Z,96
2018-07-10T04:25:43.646Z,96.2
2018-07-10T04:26:43.080Z,96.2
2018-07-10T04:27:41.906Z,96
2018-07-10T04:28:41.344Z,96.1
2018-07-10T04:29:40.556Z,96.4
2018-07-10T04:30:39.780Z,96.7
2018-07-10T04:31:39.181Z,96.7
2018-07-10T04:32:09.705Z,96.7
2018-07-10T04:32:40.345Z,96.7
2018-07-10T04:34:37.043Z,96.6
2018-07-10T04:35:36.155Z,96.6
2018-07-10T04:36:35.577Z,96.6
2018-07-10T04:37:34.502Z,96.5
2018-07-10T04:38:33.835Z,96.6
2018-07-10T04:39:33.049Z,96.8
2018-07-10T04:40:32.375Z,96.7
2018-07-10T04:41:31.602Z,96.9
2018-07-10T04:42:30.925Z,96.7
2018-07-10T04:43:30.142Z,96.6
2018-07-10T04:44:29.474Z,96.7
2018-07-10T04:45:28.803Z,97
2018-07-10T04:46:27.516Z,96.8
2018-07-10T04:47:27.244Z,96.6
2018-07-10T04:48:26.355Z,96.6
2018-07-10T04:49:26.002Z,96.7
2018-07-10T04:50:24.533Z,96.8
2018-07-10T04:51:23.857Z,96.8
2018-07-10T04:52:23.198Z,97
2018-07-10T04:53:22.525Z,96.9
2018-07-10T04:54:21.754Z,96.3
2018-07-10T04:55:21.179Z,96.1
2018-07-10T04:56:20.302Z,96.6
2018-07-10T04:57:19.524Z,96.5
2018-07-10T04:58:18.638Z,96.6
2018-07-10T04:59:17.959Z,96.7
2018-07-10T05:00:17.387Z,96.6
2018-07-10T05:00:47.634Z,96.6
2018-07-10T05:01:18.054Z,96.4
2018-07-10T05:01:48.801Z,96.4
2018-07-10T05:02:19.048Z,96.5
2018-07-10T05:02:49.295Z,96.5
2018-07-10T05:03:19.926Z,96.6
2018-07-10T05:03:50.052Z,96.6
2018-07-10T05:05:13.428Z,96.7
2018-07-10T05:06:12.799Z,96.8
2018-07-10T05:07:12.120Z,97
2018-07-10T05:08:11.331Z,97
2018-07-10T05:09:10.445Z,97
2018-07-10T05:10:09.870Z,96.7
2018-07-10T05:11:08.794Z,96.7
2018-07-10T05:12:08.160Z,96.9
2018-07-10T05:12:38.537Z,96.9
2018-07-10T05:13:08.962Z,97
2018-07-10T05:13:39.608Z,97
2018-07-10T05:14:10.034Z,97
2018-07-10T05:14:40.159Z,97
2018-07-10T05:16:05.202Z,97.1
2018-07-10T05:17:04.432Z,97.3
2018-07-10T05:18:03.655Z,97.3
2018-07-10T05:19:02.878Z,97.1
2018-07-10T05:20:02.211Z,97.1
2018-07-10T05:21:01.038Z,97.1
2018-07-10T05:22:00.269Z,97.2
2018-07-10T05:22:59.783Z,97.3
2018-07-10T05:23:59.096Z,97.2
2018-07-10T05:24:58.420Z,97.1
2018-07-10T05:25:57.339Z,97.1
2018-07-10T05:26:56.667Z,97.4
2018-07-10T05:27:56.000Z,97.3
2018-07-10T05:28:55.333Z,97.2
2018-07-10T05:29:54.624Z,97.3
2018-07-10T05:30:53.335Z,97.3
2018-07-10T05:31:53.059Z,97.5
2018-07-10T05:32:52.379Z,97.7
2018-07-10T05:33:51.206Z,97.8
2018-07-10T05:34:50.417Z,97.7
2018-07-10T05:35:49.730Z,97.8
2018-07-10T05:36:49.158Z,97.8
2018-07-10T05:37:48.483Z,98
2018-07-10T05:38:47.813Z,97.8
2018-07-10T05:39:46.631Z,97.7
2018-07-10T05:40:45.955Z,97.7
2018-07-10T05:41:45.281Z,97.7
2018-07-10T05:42:44.714Z,97.7
2018-07-10T05:43:14.956Z,97.7
2018-07-10T05:43:45.485Z,97.7
2018-07-10T05:44:43.301Z,97.6
2018-07-10T05:45:42.121Z,97.8
2018-07-10T05:46:41.445Z,97.8
2018-07-10T05:47:40.768Z,97.8
2018-07-10T05:48:39.988Z,97.9
2018-07-10T05:49:39.107Z,97.8
2018-07-10T05:50:38.434Z,97.7
2018-07-10T05:51:37.813Z,97.6
2018-07-10T05:52:36.779Z,97.6
2018-07-10T05:53:07.308Z,97.6
2018-07-10T05:53:37.940Z,97.6
2018-07-10T05:54:08.253Z,97.6
2018-07-10T05:55:34.659Z,97.5
2018-07-10T05:56:33.875Z,97.5
2018-07-10T05:57:33.116Z,97.5
2018-07-10T05:58:32.903Z,97.5
2018-07-10T06:00:31.096Z,97.2
2018-07-10T06:01:30.430Z,97.2
2018-07-10T06:02:29.257Z,97.3
2018-07-10T06:03:28.695Z,97.3
2018-07-10T06:04:27.973Z,97.5
2018-07-10T06:06:26.583Z,97.8
2018-07-10T06:07:25.911Z,97.9
2018-07-10T06:08:24.835Z,97.9
2018-07-10T06:09:24.166Z,97.8
2018-07-10T06:10:23.472Z,97.8
2018-07-10T06:11:22.503Z,97.7
2018-07-10T06:12:21.930Z,97.6
2018-07-10T06:13:21.054Z,97.5
2018-07-10T06:14:20.377Z,97.7
2018-07-10T06:15:19.707Z,97.8
2018-07-10T06:16:19.192Z,98.1
2018-07-10T06:17:17.938Z,98.1
2018-07-10T06:18:17.163Z,98.2
2018-07-10T06:19:16.386Z,98.5
2018-07-10T06:20:15.896Z,98.9
2018-07-10T06:21:15.219Z,99
2018-07-10T06:22:14.467Z,98.9
2018-07-10T06:23:13.448Z,98.8
2018-07-10T06:24:12.667Z,98.7
2018-07-10T06:25:11.879Z,98.5
2018-07-10T06:26:11.322Z,98.5
2018-07-10T06:27:10.761Z,98.4
2018-07-10T06:28:09.732Z,98.3
2018-07-10T06:29:08.884Z,98.4
2018-07-10T06:30:08.097Z,98.1
2018-07-10T06:31:07.416Z,98.4
2018-07-10T06:32:06.748Z,98.3
2018-07-10T06:33:06.135Z,98.3
2018-07-10T06:34:05.574Z,98.3
2018-07-10T06:35:04.792Z,98.3
2018-07-10T06:36:03.899Z,98.3
2018-07-10T06:37:02.848Z,98.2
2018-07-10T06:38:02.249Z,98.2
2018-07-10T06:39:01.468Z,98.1
2018-07-10T06:39:31.897Z,98.1
2018-07-10T06:40:02.324Z,97.8
2018-07-10T06:40:32.649Z,97.8
2018-07-10T06:41:59.543Z,97.9
2018-07-10T06:42:58.276Z,97.9
2018-07-10T06:43:57.713Z,97.9
2018-07-10T06:44:56.941Z,98
2018-07-10T06:45:56.160Z,98
2018-07-10T06:46:55.568Z,97.9
2018-07-10T06:47:54.784Z,97.9
2018-07-10T06:48:25.029Z,97.9
2018-07-10T06:48:55.677Z,97.7
2018-07-10T06:49:26.094Z,97.7
2018-07-10T06:49:56.637Z,97.5
2018-07-10T06:50:27.169Z,97.5
2018-07-10T06:50:57.594Z,97.3
2018-07-10T06:51:27.730Z,97.3
2018-07-10T06:52:51.781Z,97.9
2018-07-10T06:53:50.120Z,97.8
2018-07-10T06:54:49.555Z,98
2018-07-10T06:55:48.771Z,97.9
2018-07-10T06:56:47.994Z,96.9
2018-07-10T06:57:47.003Z,97.1
2018-07-10T06:58:46.828Z,97.3
2018-07-10T06:59:45.650Z,97.5
2018-07-10T07:00:45.164Z,97.9
2018-07-10T07:01:44.260Z,98.5
2018-07-10T07:02:43.581Z,98.5
2018-07-10T07:03:42.690Z,98.2
2018-07-10T07:04:42.010Z,98
2018-07-10T07:05:41.129Z,98
2018-07-10T07:06:40.454Z,97.9
2018-07-10T07:07:39.825Z,97.8
2018-07-10T07:08:39.024Z,97.8
2018-07-10T07:09:38.344Z,97.8
2018-07-10T07:10:37.671Z,97.8
2018-07-10T07:11:36.997Z,97.7
2018-07-10T07:12:35.923Z,97.4
2018-07-10T07:13:35.365Z,97.1
2018-07-10T07:14:34.584Z,97.3
2018-07-10T07:15:33.689Z,97.3
2018-07-10T07:16:33.017Z,97.4
2018-07-10T07:17:32.396Z,97.5
2018-07-10T07:18:31.512Z,97.7
2018-07-10T07:19:02.145Z,97.7
2018-07-10T07:19:32.678Z,97.6
2018-07-10T07:20:03.320Z,97.6
2018-07-10T07:20:33.953Z,97.5
2018-07-10T07:21:04.591Z,97.5
2018-07-10T07:22:28.983Z,97.4
2018-07-10T07:23:28.202Z,97.1
2018-07-10T07:24:27.128Z,97.2
2018-07-10T07:25:26.572Z,97.2
2018-07-10T07:26:25.913Z,97
2018-07-10T07:27:24.853Z,96.8
2018-07-10T07:28:24.181Z,96.3
2018-07-10T07:28:54.715Z,96.3
2018-07-10T07:29:24.948Z,96.5
2018-07-10T07:29:55.372Z,96.5
2018-07-10T07:30:25.513Z,96.5
2018-07-10T07:30:56.272Z,96.5
2018-07-10T07:31:26.794Z,96.5
2018-07-10T07:31:57.323Z,96.5
2018-07-10T07:32:27.964Z,96.6
2018-07-10T07:32:58.608Z,96.6
2018-07-10T07:34:19.673Z,96.5
2018-07-10T07:35:19.017Z,96.5
2018-07-10T07:36:18.145Z,96.5
2018-07-10T07:37:17.505Z,96.5
2018-07-10T07:38:17.126Z,96.5
2018-07-10T07:39:16.055Z,96.5
2018-07-10T07:41:14.924Z,96.3
2018-07-10T07:42:14.144Z,96.3
2018-07-10T07:43:13.305Z,96.2
2018-07-10T07:44:12.665Z,96.2
2018-07-10T07:45:11.943Z,96.2
2018-07-10T07:46:10.873Z,96.1
2018-07-10T07:47:10.303Z,95
2018-07-10T07:48:09.635Z,95.7
2018-07-10T07:49:08.956Z,95.7
2018-07-10T07:50:08.385Z,95.9
2018-07-10T07:51:07.209Z,95.9
2018-07-10T07:52:06.823Z,95.9
2018-07-10T07:53:05.941Z,94.1
2018-07-10T07:54:05.054Z,94.8
2018-07-10T07:55:04.498Z,94.5
2018-07-10T07:56:03.821Z,94.7
2018-07-10T07:57:02.936Z,94.8
2018-07-10T07:58:02.151Z,94.7
2018-07-10T07:59:01.487Z,94.6
2018-07-10T08:00:00.722Z,94.2
2018-07-10T08:01:00.097Z,94.1
2018-07-10T08:01:59.337Z,93.8
2018-07-10T08:02:58.565Z,91.7
2018-07-10T08:03:58.186Z,92.1
2018-07-10T08:04:57.520Z,91.7
2018-07-10T08:05:56.624Z,91.7
2018-07-10T08:06:55.944Z,91.4
2018-07-10T08:07:54.950Z,90.5
2018-07-10T08:08:54.167Z,91.1
2018-07-10T08:09:53.888Z,91.3
2018-07-10T08:10:52.893Z,91.6
2018-07-10T08:11:52.215Z,91.7
2018-07-10T08:12:22.936Z,91.7
2018-07-10T08:12:53.136Z,91.7
2018-07-10T08:13:50.846Z,91.2
2018-07-10T08:14:50.070Z,90.3
2018-07-10T08:15:49.396Z,90.6
2018-07-10T08:16:48.725Z,91
2018-07-10T08:17:47.946Z,91.2
2018-07-10T08:18:47.267Z,91.2
2018-07-10T08:19:46.595Z,90.6
2018-07-10T08:20:45.816Z,91
2018-07-10T08:21:45.248Z,92
2018-07-10T08:22:44.397Z,91.2
2018-07-10T08:23:43.612Z,91.5
2018-07-10T08:24:42.936Z,91.8
2018-07-10T08:25:42.369Z,92.1
2018-07-10T08:26:41.482Z,91.9
2018-07-10T08:27:12.009Z,91.9
2018-07-10T08:27:42.642Z,91.8
2018-07-10T08:28:12.890Z,91.8
2018-07-10T08:29:39.399Z,91.8
2018-07-10T08:30:38.221Z,91.8
2018-07-10T08:31:38.050Z,91.7
2018-07-10T08:32:37.269Z,92.4
2018-07-10T08:33:36.572Z,92.8
2018-07-10T08:34:35.469Z,92.7
2018-07-10T08:35:35.189Z,92.6
2018-07-10T08:36:34.012Z,90.9
2018-07-10T08:37:33.626Z,91.4
2018-07-10T08:38:32.955Z,91.5
2018-07-10T08:39:32.277Z,91.4
2018-07-10T08:40:31.402Z,91.5
2018-07-10T08:41:30.724Z,90.9
2018-07-10T08:42:30.044Z,90.8
2018-07-10T08:43:29.372Z,90.7
2018-07-10T08:44:28.591Z,90.6
2018-07-10T08:45:27.925Z,90.6
2018-07-10T08:46:27.047Z,90.3
2018-07-10T08:47:26.481Z,90.5
2018-07-10T08:48:25.816Z,90.7
2018-07-10T08:49:24.541Z,90.6
2018-07-10T08:50:24.369Z,90.4
2018-07-10T08:51:23.297Z,90.3
2018-07-10T08:52:22.408Z,88.9
2018-07-10T08:53:22.025Z,88.6
2018-07-10T08:54:21.247Z,88.8
2018-07-10T08:55:20.720Z,87.7
2018-07-10T08:56:19.747Z,87.7
2018-07-10T08:56:50.380Z,87.7
2018-07-10T08:57:20.912Z,85.5
2018-07-10T08:57:51.702Z,85.5
2018-07-10T08:59:17.589Z,87.9
2018-07-10T09:00:16.807Z,87.8
2018-07-10T09:01:16.138Z,88.1
2018-07-10T09:02:15.382Z,88.5
2018-07-10T09:03:14.815Z,89.4
2018-07-10T09:04:14.030Z,89.4
2018-07-10T09:05:13.355Z,89.6
2018-07-10T09:06:12.679Z,89.3
2018-07-10T09:06:43.202Z,89.3
2018-07-10T09:07:13.832Z,88
2018-07-10T09:07:44.576Z,88
2018-07-10T09:08:15.106Z,88.5
2018-07-10T09:08:45.749Z,88.5
2018-07-10T09:09:16.387Z,88.7
2018-07-10T09:09:46.934Z,88.7
2018-07-10T09:10:17.367Z,89.2
2018-07-10T09:10:47.895Z,89.2
2018-07-10T09:11:18.427Z,89.6
2018-07-10T09:11:48.556Z,89.6
2018-07-10T09:13:07.506Z,89.8
2018-07-10T09:14:06.837Z,89.4
2018-07-10T09:15:06.156Z,89.3
2018-07-10T09:16:05.381Z,89.5
2018-07-10T09:17:04.708Z,89.1
2018-07-10T09:18:03.931Z,89
2018-07-10T09:18:34.463Z,89
2018-07-10T09:20:02.667Z,89.3
2018-07-10T09:21:01.892Z,89.3
2018-07-10T09:22:01.223Z,89.3
2018-07-10T09:23:00.344Z,89.5
2018-07-10T09:23:59.566Z,89.6
2018-07-10T09:24:59.184Z,89.5
2018-07-10T09:25:58.406Z,88.8
2018-07-10T09:26:57.226Z,89
2018-07-10T09:27:56.741Z,89.5
2018-07-10T09:28:56.074Z,89.5
2018-07-10T09:29:55.315Z,89.9
2018-07-10T09:30:54.746Z,90.1
2018-07-10T09:31:54.016Z,90.1
2018-07-10T09:33:52.475Z,89.3
2018-07-10T09:34:52.004Z,89
2018-07-10T09:35:51.333Z,88.8
2018-07-10T09:36:50.550Z,88.3
2018-07-10T09:37:49.765Z,88.2
2018-07-10T09:38:48.700Z,88.2
2018-07-10T09:39:48.097Z,88.4
2018-07-10T09:40:47.262Z,89.2
2018-07-10T09:41:46.485Z,89.3
2018-07-10T09:42:46.318Z,88.7
2018-07-10T09:43:45.148Z,88.8
2018-07-10T09:44:44.764Z,88.3
2018-07-10T09:45:44.108Z,88.2
2018-07-10T09:46:43.440Z,87.5
2018-07-10T09:47:42.266Z,87.3
2018-07-10T09:48:41.707Z,87.2
2018-07-10T09:49:41.127Z,87.5
2018-07-10T09:50:11.443Z,87.5
2018-07-10T09:50:41.976Z,87.4
2018-07-10T09:51:12.515Z,87.4
2018-07-10T09:51:43.150Z,87.7
2018-07-10T09:52:38.946Z,87.8
2018-07-10T09:53:38.056Z,88.6
2018-07-10T09:55:36.572Z,88.8
2018-07-10T09:56:36.009Z,88.5
2018-07-10T09:57:35.227Z,89.5
2018-07-10T09:58:34.662Z,88.7
2018-07-10T09:59:34.092Z,89.1
2018-07-10T10:00:33.091Z,88.9
2018-07-10T10:01:03.295Z,88.9
2018-07-10T10:01:33.825Z,88.9
2018-07-10T10:02:31.636Z,89
2018-07-10T10:03:31.080Z,88.7
2018-07-10T10:04:30.302Z,88.4
2018-07-10T10:07:28.411Z,89.6
2018-07-10T10:08:27.955Z,89.7
2018-07-10T10:09:26.680Z,90.4
2018-07-10T10:10:26.012Z,90.5
2018-07-10T10:11:25.233Z,90.3
2018-07-10T10:12:24.451Z,89.9
2018-07-10T10:13:24.065Z,90.5
2018-07-10T10:14:23.490Z,90.6
2018-07-10T10:15:22.707Z,90.6
2018-07-10T10:17:20.919Z,90.5
2018-07-10T10:18:20.632Z,90.6
2018-07-10T10:19:19.556Z,90.6
2018-07-10T10:21:18.166Z,90.9
2018-07-10T10:22:17.386Z,90.8
2018-07-10T10:23:16.710Z,90.5
2018-07-10T10:24:16.152Z,90.5
2018-07-10T10:25:15.513Z,90.7
2018-07-10T10:26:14.950Z,90.3
2018-07-10T10:27:14.293Z,90.1
2018-07-10T10:28:13.136Z,90.2
2018-07-10T10:29:12.451Z,89.4
2018-07-10T10:30:12.019Z,89.4
2018-07-10T10:31:11.237Z,89.6
2018-07-10T10:32:10.571Z,88.9
2018-07-10T10:33:09.900Z,89.3
2018-07-10T10:34:09.223Z,89.3
2018-07-10T10:35:08.444Z,88.4
2018-07-10T10:36:07.768Z,88.5
2018-07-10T10:37:07.102Z,88.4
2018-07-10T10:38:06.534Z,87.1
2018-07-10T10:39:05.751Z,86.8
2018-07-10T10:40:04.976Z,87.2
2018-07-10T10:41:04.203Z,87.5
2018-07-10T10:42:03.527Z,86.3
2018-07-10T10:43:02.756Z,86.6
2018-07-10T10:44:02.263Z,86.3
2018-07-10T10:45:01.383Z,87.4
2018-07-10T10:45:31.933Z,87.4
2018-07-10T10:46:02.465Z,87.2
2018-07-10T10:46:32.994Z,87.2
2018-07-10T10:47:03.312Z,86.7
2018-07-10T10:47:34.051Z,86.7
2018-07-10T10:48:58.545Z,85.5
2018-07-10T10:49:57.869Z,84.9
2018-07-10T10:50:57.194Z,86.5
2018-07-10T10:51:56.419Z,86
2018-07-10T10:52:55.849Z,85.9
2018-07-10T10:53:55.098Z,83.8
2018-07-10T10:54:54.640Z,82.2
2018-07-10T10:55:25.102Z,82.2
2018-07-10T10:56:53.113Z,83.4
2018-07-10T10:57:23.860Z,83.4
2018-07-10T10:57:54.406Z,83.7
2018-07-10T10:58:25.037Z,83.7
2018-07-10T10:59:50.730Z,82.4
2018-07-10T11:00:50.122Z,82.8
2018-07-10T11:02:48.739Z,83
2018-07-10T11:03:48.468Z,82.3
2018-07-10T11:04:47.689Z,80
2018-07-10T11:05:46.810Z,80.3
2018-07-10T11:06:46.030Z,81.6
2018-07-10T11:07:45.350Z,82.6
2018-07-10T11:08:44.474Z,83
2018-07-10T11:09:44.195Z,82.5
2018-07-10T11:10:43.304Z,80.8
2018-07-10T11:11:42.818Z,78.9
2018-07-10T11:12:42.244Z,80.2
2018-07-10T11:13:41.172Z,79.8
2018-07-10T11:14:40.924Z,78.4
2018-07-10T11:15:40.142Z,79.4
2018-07-10T11:16:39.573Z,80.7
2018-07-10T11:17:38.785Z,80.5
2018-07-10T11:18:38.017Z,78.7
2018-07-10T11:19:37.343Z,79.1
2018-07-10T11:20:36.789Z,79.6
2018-07-10T11:21:36.113Z,81
2018-07-10T11:22:35.441Z,80.2
2018-07-10T11:23:34.877Z,78.3
2018-07-10T11:24:33.984Z,78.7
2018-07-10T11:25:33.313Z,80.3
2018-07-10T11:26:32.437Z,80.7
2018-07-10T11:27:32.050Z,79.9
2018-07-10T11:28:02.290Z,79.9
2018-07-10T11:28:32.928Z,79.3
2018-07-10T11:29:03.449Z,79.3
2018-07-10T11:29:33.654Z,79.7
2018-07-10T11:30:04.070Z,79.7
2018-07-10T11:31:29.140Z,78.3
2018-07-10T11:32:28.370Z,79
2018-07-10T11:33:27.712Z,80.8
2018-07-10T11:34:27.048Z,78.4
2018-07-10T11:35:26.490Z,79.4
2018-07-10T11:36:25.918Z,79.3
2018-07-10T11:37:25.245Z,80.4
2018-07-10T11:38:24.582Z,78.4
2018-07-10T11:38:55.231Z,78.4
2018-07-10T11:39:26.296Z,78.7
2018-07-10T11:39:56.288Z,78.7
2018-07-10T11:41:22.688Z,79.7
2018-07-10T11:42:21.896Z,79
2018-07-10T11:43:21.114Z,80.1
2018-07-10T11:44:20.554Z,81.9
2018-07-10T11:45:19.891Z,80.8
2018-07-10T11:46:19.111Z,79.6
2018-07-10T11:47:18.341Z,79.9
2018-07-10T11:48:18.063Z,80.9
2018-07-10T11:49:17.069Z,80.6
2018-07-10T11:50:16.387Z,79.7
2018-07-10T11:51:15.649Z,77.5
2018-07-10T11:52:15.085Z,77.5
2018-07-10T11:53:14.420Z,78.1
2018-07-10T11:55:13.136Z,75.1
2018-07-10T11:56:12.353Z,75.5
2018-07-10T11:57:11.577Z,76.1
2018-07-10T11:58:11.202Z,77.5
2018-07-10T11:59:10.634Z,78.4
2018-07-10T12:00:10.074Z,78.7
2018-07-10T12:01:09.401Z,77.9
2018-07-10T12:02:08.513Z,76.8
2018-07-10T12:04:07.245Z,74.8
2018-07-10T12:05:06.353Z,74.4
2018-07-10T12:06:05.877Z,75.2
2018-07-10T12:07:05.209Z,73.4
2018-07-10T12:08:04.430Z,74.4
2018-07-10T12:09:03.750Z,73.7
2018-07-10T12:10:03.472Z,73.3
2018-07-10T12:11:02.693Z,73.9
2018-07-10T12:12:02.016Z,73.1
2018-07-10T12:13:01.022Z,73.4
2018-07-10T12:14:00.527Z,72.3
2018-07-10T12:14:59.741Z,71.7
2018-07-10T12:15:59.080Z,73.4
2018-07-10T12:16:58.795Z,71.8
2018-07-10T12:17:58.121Z,68.9
2018-07-10T12:18:57.545Z,72.6
2018-07-10T12:19:56.870Z,73.1
2018-07-10T12:20:56.134Z,72.4
2018-07-10T12:21:55.200Z,74.2
2018-07-10T12:22:54.525Z,73
2018-07-10T12:23:54.244Z,73.5
2018-07-10T12:24:53.466Z,75.4
2018-07-10T12:25:23.604Z,75.4
2018-07-10T12:25:54.128Z,72.6
2018-07-10T12:26:24.762Z,72.6
2018-07-10T12:26:55.294Z,72.6
2018-07-10T12:27:51.676Z,73.1
2018-07-10T12:28:51.066Z,77.6
2018-07-10T12:29:50.386Z,75.9
2018-07-10T12:30:49.763Z,74.3
2018-07-10T12:31:48.701Z,73.7
2018-07-10T12:32:48.422Z,72.8
2018-07-10T12:33:47.842Z,73.5
2018-07-10T12:34:46.831Z,74.4
2018-07-10T12:35:17.236Z,74.4
2018-07-10T12:35:47.880Z,72.7
2018-07-10T12:36:18.521Z,72.7
2018-07-10T12:36:49.167Z,73.2
2018-07-10T12:37:19.804Z,73.2
2018-07-10T12:37:50.449Z,74.1
2018-07-10T12:38:20.697Z,74.1
2018-07-10T12:39:43.677Z,74.7
2018-07-10T12:40:43.188Z,70.6
2018-07-10T12:41:42.692Z,71.8
2018-07-10T12:42:41.710Z,71
2018-07-10T12:44:40.716Z,68.3
2018-07-10T12:45:40.050Z,64.6
2018-07-10T12:46:39.493Z,65
2018-07-10T12:47:38.499Z,65.3
2018-07-10T12:48:38.231Z,67.5